< Typhoon 198603 1986 Season Typhoon 198605 >
Typhoon 198604 (MAC)
General InformationTrack Information on Google MapsDetailed Wind InformationList of All Images || Disaster Info.ResourceGoogle EarthGE AnimationAtom FeedGeoJSON
Detalied Best Track (Time Zone = UTC)
Year Month Day Hour Lat. Long. Pressure (hPa) Wind (kt) Class Image Chart
1986 5 17 00 16.5 112.5 1002 0 2 Image Chart
1986 5 17 06 15.8 112.0 1000 0 2 Image Chart
1986 5 17 12 15.3 111.5 1000 0 2 Image Chart
1986 5 17 18 15.2 110.9 998 0 2 Image Chart
1986 5 18 00 15.4 110.3 998 0 2 Image Chart
1986 5 18 06 15.7 109.9 998 0 2 Image Chart
1986 5 18 12 16.3 109.6 998 0 2 Image Chart
1986 5 18 18 16.9 109.5 998 0 2 Image Chart
1986 5 19 00 17.4 109.4 998 0 2 Image Chart
1986 5 19 06 18.0 109.4 998 0 2 Image Chart
1986 5 19 12 18.6 109.4 998 0 2 Image Chart
1986 5 19 18 19.2 109.6 998 0 2 Image Chart
1986 5 20 00 19.8 109.9 996 0 2 Image Chart
1986 5 20 06 20.2 110.4 996 0 2 Image Chart
1986 5 20 12 20.4 111.0 996 0 2 Image Chart
1986 5 20 18 20.5 111.6 996 0 2 Image Chart
1986 5 21 00 20.5 112.0 996 0 2 Image Chart
1986 5 21 06 20.5 112.2 996 0 2 Image Chart
1986 5 21 12 20.5 112.4 996 0 2 Image Chart
1986 5 21 18 20.4 112.6 998 0 2 Image Chart
1986 5 22 00 20.4 112.8 998 0 2 Image Chart
1986 5 22 06 20.2 113.1 998 0 2 Image Chart
1986 5 22 12 20.0 113.4 998 0 2 Image Chart
1986 5 22 18 19.7 114.0 998 0 2 Image Chart
1986 5 23 00 19.6 114.6 998 0 2 Image Chart
1986 5 23 06 19.5 115.1 996 0 2 Image Chart
1986 5 23 12 19.6 115.5 994 40 3 Image Chart
1986 5 23 18 19.8 116.0 992 40 3 Image Chart
1986 5 24 00 20.0 116.5 992 40 3 Image Chart
1986 5 24 06 20.1 117.1 992 40 3 Image Chart
1986 5 24 12 20.2 117.8 994 35 3 Image Chart
1986 5 24 18 20.1 118.4 994 35 3 Image Chart
1986 5 25 00 20.0 119.0 996 35 3 Image Chart
1986 5 25 06 19.8 119.6 996 35 3 Image Chart
1986 5 25 12 19.8 120.2 996 35 3 Image Chart
1986 5 25 18 20.2 120.7 996 35 3 Image Chart
1986 5 26 00 20.7 121.1 996 35 3 Image Chart
1986 5 26 06 21.3 121.5 994 35 3 Image Chart
1986 5 26 12 21.9 121.9 994 40 3 Image Chart
1986 5 26 18 22.6 122.6 994 40 3 Image Chart
1986 5 27 00 23.0 123.0 996 40 3 Image Chart
1986 5 27 06 23.3 123.0 996 40 3 Image Chart
1986 5 27 12 23.6 122.9 996 40 3 Image Chart
1986 5 27 18 23.5 122.8 996 40 3 Image Chart
1986 5 28 00 23.5 123.5 996 40 3 Image Chart
1986 5 28 06 23.5 124.0 996 35 3 Image Chart
1986 5 28 12 23.4 124.9 1000 0 2 Image Chart
1986 5 28 18 23.7 126.1 1000 0 2 Image Chart
1986 5 29 00 24.1 127.5 1000 0 2 Image Chart
1986 5 29 06 24.6 129.0 1000 0 2 Image Chart
1986 5 29 12 25.1 130.6 998 0 2 Image Chart
1986 5 29 18 26.0 133.2 996 0 2 Image Chart
1986 5 30 00 27.0 135.8 998 0 2 Image Chart
1986 5 30 06 29.2 138.8 998 0 2 Image Chart
Japan Meteorological Agency Best Track Data | Correction Date : 1992-10-21
< Typhoon 198603 1986 Season Typhoon 198605 >

Help